sensor_id;sensor_type;location;lat;lon;timestamp;temperature;humidity
27567;DHT22;15006;48.584;9.186;2024-01-25T00:00:25;5.40;97.70
27567;DHT22;15006;48.584;9.186;2024-01-25T00:02:51;5.50;98.00
27567;DHT22;15006;48.584;9.186;2024-01-25T00:05:17;5.50;98.10
27567;DHT22;15006;48.584;9.186;2024-01-25T00:07:49;5.50;98.10
27567;DHT22;15006;48.584;9.186;2024-01-25T00:10:17;5.50;97.30
27567;DHT22;15006;48.584;9.186;2024-01-25T00:12:43;5.50;97.90
27567;DHT22;15006;48.584;9.186;2024-01-25T00:15:10;5.50;98.10
27567;DHT22;15006;48.584;9.186;2024-01-25T00:17:36;5.50;97.80
27567;DHT22;15006;48.584;9.186;2024-01-25T00:20:03;5.60;98.00
27567;DHT22;15006;48.584;9.186;2024-01-25T00:22:30;5.60;97.60
27567;DHT22;15006;48.584;9.186;2024-01-25T00:24:58;5.60;97.90
27567;DHT22;15006;48.584;9.186;2024-01-25T00:27:24;5.60;98.10
27567;DHT22;15006;48.584;9.186;2024-01-25T00:29:50;5.70;98.20
27567;DHT22;15006;48.584;9.186;2024-01-25T00:32:16;5.60;98.30
27567;DHT22;15006;48.584;9.186;2024-01-25T00:34:42;5.60;98.30
27567;DHT22;15006;48.584;9.186;2024-01-25T00:37:09;5.60;98.10
27567;DHT22;15006;48.584;9.186;2024-01-25T00:39:36;5.60;97.90
27567;DHT22;15006;48.584;9.186;2024-01-25T00:42:06;5.60;97.80
27567;DHT22;15006;48.584;9.186;2024-01-25T00:44:32;5.60;97.20
27567;DHT22;15006;48.584;9.186;2024-01-25T00:46:59;5.60;98.00
27567;DHT22;15006;48.584;9.186;2024-01-25T00:49:25;5.60;97.80
27567;DHT22;15006;48.584;9.186;2024-01-25T00:51:58;5.60;97.90
27567;DHT22;15006;48.584;9.186;2024-01-25T00:54:25;5.60;97.30
27567;DHT22;15006;48.584;9.186;2024-01-25T00:56:51;5.60;97.80
27567;DHT22;15006;48.584;9.186;2024-01-25T00:59:19;5.60;97.90
27567;DHT22;15006;48.584;9.186;2024-01-25T01:01:47;5.60;97.90
27567;DHT22;15006;48.584;9.186;2024-01-25T01:04:14;5.60;97.60
27567;DHT22;15006;48.584;9.186;2024-01-25T01:06:41;5.60;97.60
27567;DHT22;15006;48.584;9.186;2024-01-25T01:09:07;5.70;97.40
27567;DHT22;15006;48.584;9.186;2024-01-25T01:11:33;5.70;97.50
27567;DHT22;15006;48.584;9.186;2024-01-25T01:13:59;5.70;97.50
27567;DHT22;15006;48.584;9.186;2024-01-25T01:16:26;5.80;97.30
27567;DHT22;15006;48.584;9.186;2024-01-25T01:18:52;5.70;97.10
27567;DHT22;15006;48.584;9.186;2024-01-25T01:21:18;5.70;96.80
27567;DHT22;15006;48.584;9.186;2024-01-25T01:23:44;5.80;97.00
27567;DHT22;15006;48.584;9.186;2024-01-25T01:26:11;5.80;96.50
27567;DHT22;15006;48.584;9.186;2024-01-25T01:28:37;5.80;96.30
27567;DHT22;15006;48.584;9.186;2024-01-25T01:31:03;5.80;96.80
27567;DHT22;15006;48.584;9.186;2024-01-25T01:33:30;5.90;96.70
27567;DHT22;15006;48.584;9.186;2024-01-25T01:35:56;5.90;97.10
27567;DHT22;15006;48.584;9.186;2024-01-25T01:38:22;5.90;97.30
27567;DHT22;15006;48.584;9.186;2024-01-25T01:40:48;5.90;97.00
27567;DHT22;15006;48.584;9.186;2024-01-25T01:43:21;5.90;97.30
27567;DHT22;15006;48.584;9.186;2024-01-25T01:45:49;5.90;96.50
27567;DHT22;15006;48.584;9.186;2024-01-25T01:48:16;5.80;97.40
27567;DHT22;15006;48.584;9.186;2024-01-25T01:50:44;5.80;97.40
27567;DHT22;15006;48.584;9.186;2024-01-25T01:53:10;5.70;97.40
27567;DHT22;15006;48.584;9.186;2024-01-25T01:55:37;5.70;97.60
27567;DHT22;15006;48.584;9.186;2024-01-25T01:58:04;5.70;97.90
27567;DHT22;15006;48.584;9.186;2024-01-25T02:00:30;5.70;98.20
27567;DHT22;15006;48.584;9.186;2024-01-25T02:02:58;5.70;98.40
27567;DHT22;15006;48.584;9.186;2024-01-25T02:05:25;5.60;98.70
27567;DHT22;15006;48.584;9.186;2024-01-25T02:07:51;5.60;98.80
27567;DHT22;15006;48.584;9.186;2024-01-25T02:10:18;5.60;98.80
27567;DHT22;15006;48.584;9.186;2024-01-25T02:12:44;5.50;98.60
27567;DHT22;15006;48.584;9.186;2024-01-25T02:15:10;5.50;98.90
27567;DHT22;15006;48.584;9.186;2024-01-25T02:17:36;5.50;99.20
27567;DHT22;15006;48.584;9.186;2024-01-25T02:20:03;5.50;99.40
27567;DHT22;15006;48.584;9.186;2024-01-25T02:22:29;5.50;99.50
27567;DHT22;15006;48.584;9.186;2024-01-25T02:24:55;5.40;99.80
27567;DHT22;15006;48.584;9.186;2024-01-25T02:27:21;5.40;99.80
27567;DHT22;15006;48.584;9.186;2024-01-25T02:29:47;5.40;99.90
27567;DHT22;15006;48.584;9.186;2024-01-25T02:32:13;5.40;99.90
27567;DHT22;15006;48.584;9.186;2024-01-25T02:34:39;5.40;99.90
27567;DHT22;15006;48.584;9.186;2024-01-25T02:37:05;5.40;99.80
27567;DHT22;15006;48.584;9.186;2024-01-25T02:39:31;5.50;99.90
27567;DHT22;15006;48.584;9.186;2024-01-25T02:41:57;5.50;99.90
27567;DHT22;15006;48.584;9.186;2024-01-25T02:44:23;5.50;99.90
27567;DHT22;15006;48.584;9.186;2024-01-25T02:46:49;5.50;99.90
27567;DHT22;15006;48.584;9.186;2024-01-25T02:49:15;5.50;99.90
27567;DHT22;15006;48.584;9.186;2024-01-25T02:51:41;5.50;99.90
27567;DHT22;15006;48.584;9.186;2024-01-25T02:54:07;5.50;99.90
27567;DHT22;15006;48.584;9.186;2024-01-25T02:56:33;5.50;99.90
27567;DHT22;15006;48.584;9.186;2024-01-25T02:59:01;5.50;99.90
27567;DHT22;15006;48.584;9.186;2024-01-25T03:01:27;5.40;99.90
27567;DHT22;15006;48.584;9.186;2024-01-25T03:03:53;5.40;99.90
27567;DHT22;15006;48.584;9.186;2024-01-25T03:06:20;5.40;99.90
27567;DHT22;15006;48.584;9.186;2024-01-25T03:08:46;5.30;99.90
27567;DHT22;15006;48.584;9.186;2024-01-25T03:11:12;5.30;99.90
27567;DHT22;15006;48.584;9.186;2024-01-25T03:13:38;5.30;99.90
27567;DHT22;15006;48.584;9.186;2024-01-25T03:16:04;5.30;99.90
27567;DHT22;15006;48.584;9.186;2024-01-25T03:18:30;5.30;99.90
27567;DHT22;15006;48.584;9.186;2024-01-25T03:20:56;5.30;99.90
27567;DHT22;15006;48.584;9.186;2024-01-25T03:23:22;5.30;99.90
27567;DHT22;15006;48.584;9.186;2024-01-25T03:25:48;5.30;99.90
27567;DHT22;15006;48.584;9.186;2024-01-25T03:28:14;5.30;99.90
27567;DHT22;15006;48.584;9.186;2024-01-25T03:30:42;5.30;99.90
27567;DHT22;15006;48.584;9.186;2024-01-25T03:33:08;5.30;99.90
27567;DHT22;15006;48.584;9.186;2024-01-25T03:35:34;5.30;99.90
27567;DHT22;15006;48.584;9.186;2024-01-25T03:38:00;5.30;99.90
27567;DHT22;15006;48.584;9.186;2024-01-25T03:40:26;5.30;99.90
27567;DHT22;15006;48.584;9.186;2024-01-25T03:42:52;5.30;99.90
27567;DHT22;15006;48.584;9.186;2024-01-25T03:45:18;5.30;99.90
27567;DHT22;15006;48.584;9.186;2024-01-25T03:47:44;5.30;99.90
27567;DHT22;15006;48.584;9.186;2024-01-25T03:50:10;5.30;99.90
27567;DHT22;15006;48.584;9.186;2024-01-25T03:52:36;5.30;99.90
27567;DHT22;15006;48.584;9.186;2024-01-25T03:55:03;5.30;99.90
27567;DHT22;15006;48.584;9.186;2024-01-25T03:57:30;5.30;99.90
27567;DHT22;15006;48.584;9.186;2024-01-25T03:59:56;5.30;99.90
27567;DHT22;15006;48.584;9.186;2024-01-25T04:02:22;5.30;99.90
27567;DHT22;15006;48.584;9.186;2024-01-25T04:04:47;5.30;99.90
27567;DHT22;15006;48.584;9.186;2024-01-25T04:07:13;5.30;99.90
27567;DHT22;15006;48.584;9.186;2024-01-25T04:09:39;5.30;99.90
27567;DHT22;15006;48.584;9.186;2024-01-25T04:12:06;5.30;99.90
27567;DHT22;15006;48.584;9.186;2024-01-25T04:14:32;5.30;99.90
27567;DHT22;15006;48.584;9.186;2024-01-25T04:16:58;5.30;99.90
27567;DHT22;15006;48.584;9.186;2024-01-25T04:19:24;5.30;99.90
27567;DHT22;15006;48.584;9.186;2024-01-25T04:21:50;5.30;99.90
27567;DHT22;15006;48.584;9.186;2024-01-25T04:24:16;5.30;99.90
27567;DHT22;15006;48.584;9.186;2024-01-25T04:26:42;5.30;99.90
27567;DHT22;15006;48.584;9.186;2024-01-25T04:29:08;5.40;99.90
27567;DHT22;15006;48.584;9.186;2024-01-25T04:31:34;5.30;99.90
27567;DHT22;15006;48.584;9.186;2024-01-25T04:34:00;5.30;99.90
27567;DHT22;15006;48.584;9.186;2024-01-25T04:36:26;5.30;99.90
27567;DHT22;15006;48.584;9.186;2024-01-25T04:38:52;5.30;99.90
27567;DHT22;15006;48.584;9.186;2024-01-25T04:41:18;5.30;99.90
27567;DHT22;15006;48.584;9.186;2024-01-25T04:43:44;5.30;99.70
27567;DHT22;15006;48.584;9.186;2024-01-25T04:46:11;5.30;99.70
27567;DHT22;15006;48.584;9.186;2024-01-25T04:48:37;5.30;99.90
27567;DHT22;15006;48.584;9.186;2024-01-25T04:51:03;5.20;99.80
27567;DHT22;15006;48.584;9.186;2024-01-25T04:53:30;5.30;99.70
27567;DHT22;15006;48.584;9.186;2024-01-25T04:55:55;5.30;99.70
27567;DHT22;15006;48.584;9.186;2024-01-25T04:58:22;5.20;99.90
27567;DHT22;15006;48.584;9.186;2024-01-25T05:00:48;5.30;99.90
27567;DHT22;15006;48.584;9.186;2024-01-25T05:03:16;5.20;99.90
27567;DHT22;15006;48.584;9.186;2024-01-25T05:05:42;5.20;99.90
27567;DHT22;15006;48.584;9.186;2024-01-25T05:08:08;5.20;99.90
27567;DHT22;15006;48.584;9.186;2024-01-25T05:10:34;5.20;99.90
27567;DHT22;15006;48.584;9.186;2024-01-25T05:13:00;5.20;99.90
27567;DHT22;15006;48.584;9.186;2024-01-25T05:15:26;5.20;99.90
27567;DHT22;15006;48.584;9.186;2024-01-25T05:17:52;5.20;99.90
27567;DHT22;15006;48.584;9.186;2024-01-25T05:20:18;5.30;99.90
27567;DHT22;15006;48.584;9.186;2024-01-25T05:22:44;5.20;99.90
27567;DHT22;15006;48.584;9.186;2024-01-25T05:25:11;5.20;99.90
27567;DHT22;15006;48.584;9.186;2024-01-25T05:27:37;5.20;99.90
27567;DHT22;15006;48.584;9.186;2024-01-25T05:30:03;5.20;99.90
27567;DHT22;15006;48.584;9.186;2024-01-25T05:32:30;5.20;99.90
27567;DHT22;15006;48.584;9.186;2024-01-25T05:34:56;5.20;99.90
27567;DHT22;15006;48.584;9.186;2024-01-25T05:37:22;5.20;99.90
27567;DHT22;15006;48.584;9.186;2024-01-25T05:39:48;5.20;99.90
27567;DHT22;15006;48.584;9.186;2024-01-25T05:42:14;5.20;99.90
27567;DHT22;15006;48.584;9.186;2024-01-25T05:44:40;5.20;99.90
27567;DHT22;15006;48.584;9.186;2024-01-25T05:47:06;5.20;99.90
27567;DHT22;15006;48.584;9.186;2024-01-25T05:49:32;5.20;99.90
27567;DHT22;15006;48.584;9.186;2024-01-25T05:51:58;5.20;99.90
27567;DHT22;15006;48.584;9.186;2024-01-25T05:54:24;5.10;99.90
27567;DHT22;15006;48.584;9.186;2024-01-25T05:56:50;5.10;99.90
27567;DHT22;15006;48.584;9.186;2024-01-25T05:59:16;5.10;99.90
27567;DHT22;15006;48.584;9.186;2024-01-25T06:01:42;5.00;99.90
27567;DHT22;15006;48.584;9.186;2024-01-25T06:04:08;5.00;99.90
27567;DHT22;15006;48.584;9.186;2024-01-25T06:06:34;4.90;99.90
27567;DHT22;15006;48.584;9.186;2024-01-25T06:09:00;4.80;99.60
27567;DHT22;15006;48.584;9.186;2024-01-25T06:11:26;4.70;98.70
27567;DHT22;15006;48.584;9.186;2024-01-25T06:13:52;4.60;98.10
27567;DHT22;15006;48.584;9.186;2024-01-25T06:16:18;4.50;97.70
27567;DHT22;15006;48.584;9.186;2024-01-25T06:18:44;4.40;98.00
27567;DHT22;15006;48.584;9.186;2024-01-25T06:21:10;4.30;98.60
27567;DHT22;15006;48.584;9.186;2024-01-25T06:23:36;4.20;99.40
27567;DHT22;15006;48.584;9.186;2024-01-25T06:26:02;4.10;99.90
27567;DHT22;15006;48.584;9.186;2024-01-25T06:28:28;4.10;99.90
27567;DHT22;15006;48.584;9.186;2024-01-25T06:30:54;4.10;99.90
27567;DHT22;15006;48.584;9.186;2024-01-25T06:33:21;4.00;99.90
27567;DHT22;15006;48.584;9.186;2024-01-25T06:35:47;4.00;99.90
27567;DHT22;15006;48.584;9.186;2024-01-25T06:38:13;4.00;99.90
27567;DHT22;15006;48.584;9.186;2024-01-25T06:40:39;3.90;99.90
27567;DHT22;15006;48.584;9.186;2024-01-25T06:43:05;3.90;99.90
27567;DHT22;15006;48.584;9.186;2024-01-25T06:45:31;3.80;99.90
27567;DHT22;15006;48.584;9.186;2024-01-25T06:47:57;3.80;99.90
27567;DHT22;15006;48.584;9.186;2024-01-25T06:50:23;3.80;99.90
27567;DHT22;15006;48.584;9.186;2024-01-25T06:52:49;3.80;99.90
27567;DHT22;15006;48.584;9.186;2024-01-25T06:55:15;3.80;99.90
27567;DHT22;15006;48.584;9.186;2024-01-25T06:57:41;3.80;99.90
27567;DHT22;15006;48.584;9.186;2024-01-25T07:00:07;3.80;99.90
27567;DHT22;15006;48.584;9.186;2024-01-25T07:02:35;3.80;99.90
27567;DHT22;15006;48.584;9.186;2024-01-25T07:05:01;3.70;99.90
27567;DHT22;15006;48.584;9.186;2024-01-25T07:07:27;3.70;99.90
27567;DHT22;15006;48.584;9.186;2024-01-25T07:09:53;3.80;99.90
27567;DHT22;15006;48.584;9.186;2024-01-25T07:12:19;3.70;99.90
27567;DHT22;15006;48.584;9.186;2024-01-25T07:14:45;3.70;99.90
27567;DHT22;15006;48.584;9.186;2024-01-25T07:17:11;3.70;99.90
27567;DHT22;15006;48.584;9.186;2024-01-25T07:19:37;3.70;99.90
27567;DHT22;15006;48.584;9.186;2024-01-25T07:22:03;3.70;99.90
27567;DHT22;15006;48.584;9.186;2024-01-25T07:24:30;3.60;99.80
27567;DHT22;15006;48.584;9.186;2024-01-25T07:26:56;3.60;99.60
27567;DHT22;15006;48.584;9.186;2024-01-25T07:29:23;3.50;99.20
27567;DHT22;15006;48.584;9.186;2024-01-25T07:31:49;3.50;98.70
27567;DHT22;15006;48.584;9.186;2024-01-25T07:34:15;3.40;98.90
27567;DHT22;15006;48.584;9.186;2024-01-25T07:36:41;3.30;98.80
27567;DHT22;15006;48.584;9.186;2024-01-25T07:39:07;3.20;98.80
27567;DHT22;15006;48.584;9.186;2024-01-25T07:41:34;3.20;99.00
27567;DHT22;15006;48.584;9.186;2024-01-25T07:44:00;3.10;99.00
27567;DHT22;15006;48.584;9.186;2024-01-25T07:46:25;3.10;99.00
27567;DHT22;15006;48.584;9.186;2024-01-25T07:48:52;3.00;98.90
27567;DHT22;15006;48.584;9.186;2024-01-25T07:51:18;2.90;98.70
27567;DHT22;15006;48.584;9.186;2024-01-25T07:53:43;2.80;98.80
27567;DHT22;15006;48.584;9.186;2024-01-25T07:56:09;2.80;99.70
27567;DHT22;15006;48.584;9.186;2024-01-25T07:58:36;2.70;99.90
27567;DHT22;15006;48.584;9.186;2024-01-25T08:01:06;2.70;99.90
27567;DHT22;15006;48.584;9.186;2024-01-25T08:03:32;2.80;99.90
27567;DHT22;15006;48.584;9.186;2024-01-25T08:06:02;2.80;99.90
27567;DHT22;15006;48.584;9.186;2024-01-25T08:08:28;2.90;99.90
27567;DHT22;15006;48.584;9.186;2024-01-25T08:10:54;3.00;99.90
27567;DHT22;15006;48.584;9.186;2024-01-25T08:13:20;3.00;99.90
27567;DHT22;15006;48.584;9.186;2024-01-25T08:15:46;3.10;99.90
27567;DHT22;15006;48.584;9.186;2024-01-25T08:18:12;3.20;99.90
27567;DHT22;15006;48.584;9.186;2024-01-25T08:20:39;3.40;99.90
27567;DHT22;15006;48.584;9.186;2024-01-25T08:23:05;3.40;99.90
27567;DHT22;15006;48.584;9.186;2024-01-25T08:25:34;3.60;99.90
27567;DHT22;15006;48.584;9.186;2024-01-25T08:28:00;3.60;99.90
27567;DHT22;15006;48.584;9.186;2024-01-25T08:30:26;3.80;99.90
27567;DHT22;15006;48.584;9.186;2024-01-25T08:32:52;3.80;99.90
27567;DHT22;15006;48.584;9.186;2024-01-25T08:35:18;3.90;99.90
27567;DHT22;15006;48.584;9.186;2024-01-25T08:37:44;4.00;99.90
27567;DHT22;15006;48.584;9.186;2024-01-25T08:40:10;4.10;99.90
27567;DHT22;15006;48.584;9.186;2024-01-25T08:42:36;4.20;99.90
27567;DHT22;15006;48.584;9.186;2024-01-25T08:45:21;4.20;99.90
27567;DHT22;15006;48.584;9.186;2024-01-25T08:48:05;4.30;99.90
27567;DHT22;15006;48.584;9.186;2024-01-25T08:50:31;4.30;99.90
27567;DHT22;15006;48.584;9.186;2024-01-25T08:52:58;4.40;99.90
27567;DHT22;15006;48.584;9.186;2024-01-25T08:55:25;4.50;99.90
27567;DHT22;15006;48.584;9.186;2024-01-25T08:57:51;4.60;99.90
27567;DHT22;15006;48.584;9.186;2024-01-25T09:00:17;4.60;99.90
27567;DHT22;15006;48.584;9.186;2024-01-25T09:02:44;4.60;99.90
27567;DHT22;15006;48.584;9.186;2024-01-25T09:05:10;4.70;99.90
27567;DHT22;15006;48.584;9.186;2024-01-25T09:07:37;4.80;99.90
27567;DHT22;15006;48.584;9.186;2024-01-25T09:10:03;4.70;99.90
27567;DHT22;15006;48.584;9.186;2024-01-25T09:12:34;4.80;99.90
27567;DHT22;15006;48.584;9.186;2024-01-25T09:15:01;4.90;99.90
27567;DHT22;15006;48.584;9.186;2024-01-25T09:17:29;4.90;99.90
27567;DHT22;15006;48.584;9.186;2024-01-25T09:19:55;5.00;99.90
27567;DHT22;15006;48.584;9.186;2024-01-25T09:22:24;5.10;99.90
27567;DHT22;15006;48.584;9.186;2024-01-25T09:24:50;5.20;99.90
27567;DHT22;15006;48.584;9.186;2024-01-25T09:27:16;5.30;99.90
27567;DHT22;15006;48.584;9.186;2024-01-25T09:29:42;5.30;99.90
27567;DHT22;15006;48.584;9.186;2024-01-25T09:32:09;5.30;99.90
27567;DHT22;15006;48.584;9.186;2024-01-25T09:34:36;5.40;99.90
27567;DHT22;15006;48.584;9.186;2024-01-25T09:37:04;5.40;99.90
27567;DHT22;15006;48.584;9.186;2024-01-25T09:39:31;5.50;99.90
27567;DHT22;15006;48.584;9.186;2024-01-25T09:41:58;5.60;99.90
27567;DHT22;15006;48.584;9.186;2024-01-25T09:44:24;5.60;99.90
27567;DHT22;15006;48.584;9.186;2024-01-25T09:46:51;5.70;99.90
27567;DHT22;15006;48.584;9.186;2024-01-25T09:49:17;5.80;99.90
27567;DHT22;15006;48.584;9.186;2024-01-25T09:51:44;5.80;99.90
27567;DHT22;15006;48.584;9.186;2024-01-25T09:54:11;5.90;99.40
27567;DHT22;15006;48.584;9.186;2024-01-25T09:56:41;6.00;99.00
27567;DHT22;15006;48.584;9.186;2024-01-25T09:59:08;6.00;99.50
27567;DHT22;15006;48.584;9.186;2024-01-25T10:01:34;6.10;98.90
27567;DHT22;15006;48.584;9.186;2024-01-25T10:04:00;6.20;98.70
27567;DHT22;15006;48.584;9.186;2024-01-25T10:06:26;6.30;97.70
27567;DHT22;15006;48.584;9.186;2024-01-25T10:08:53;6.40;99.30
27567;DHT22;15006;48.584;9.186;2024-01-25T10:11:19;6.50;99.10
27567;DHT22;15006;48.584;9.186;2024-01-25T10:13:47;6.60;97.00
27567;DHT22;15006;48.584;9.186;2024-01-25T10:16:14;6.70;96.40
27567;DHT22;15006;48.584;9.186;2024-01-25T10:18:42;6.80;96.00
27567;DHT22;15006;48.584;9.186;2024-01-25T10:21:12;6.90;94.00
27567;DHT22;15006;48.584;9.186;2024-01-25T10:23:39;6.90;93.40
27567;DHT22;15006;48.584;9.186;2024-01-25T10:26:07;6.90;95.00
27567;DHT22;15006;48.584;9.186;2024-01-25T10:28:33;7.10;95.70
27567;DHT22;15006;48.584;9.186;2024-01-25T10:31:00;7.10;97.00
27567;DHT22;15006;48.584;9.186;2024-01-25T10:33:28;7.20;97.60
27567;DHT22;15006;48.584;9.186;2024-01-25T10:35:54;7.20;97.40
27567;DHT22;15006;48.584;9.186;2024-01-25T10:38:21;7.30;96.70
27567;DHT22;15006;48.584;9.186;2024-01-25T10:40:48;7.40;95.40
27567;DHT22;15006;48.584;9.186;2024-01-25T10:43:14;7.50;94.00
27567;DHT22;15006;48.584;9.186;2024-01-25T10:45:40;7.50;94.30
27567;DHT22;15006;48.584;9.186;2024-01-25T10:48:07;7.60;93.10
27567;DHT22;15006;48.584;9.186;2024-01-25T10:50:33;7.60;93.10
27567;DHT22;15006;48.584;9.186;2024-01-25T10:53:00;7.60;93.10
27567;DHT22;15006;48.584;9.186;2024-01-25T10:55:27;7.70;91.10
27567;DHT22;15006;48.584;9.186;2024-01-25T10:57:54;7.60;91.90
27567;DHT22;15006;48.584;9.186;2024-01-25T11:00:21;7.60;92.20
27567;DHT22;15006;48.584;9.186;2024-01-25T11:02:48;7.50;92.30
27567;DHT22;15006;48.584;9.186;2024-01-25T11:05:17;7.50;93.50
27567;DHT22;15006;48.584;9.186;2024-01-25T11:07:48;7.60;95.90
27567;DHT22;15006;48.584;9.186;2024-01-25T11:10:20;7.80;97.60
27567;DHT22;15006;48.584;9.186;2024-01-25T11:12:51;8.20;99.90
27567;DHT22;15006;48.584;9.186;2024-01-25T11:15:30;8.50;99.90
27567;DHT22;15006;48.584;9.186;2024-01-25T11:17:58;9.10;99.90
27567;DHT22;15006;48.584;9.186;2024-01-25T11:20:26;9.60;99.90
27567;DHT22;15006;48.584;9.186;2024-01-25T11:23:01;10.10;99.90
27567;DHT22;15006;48.584;9.186;2024-01-25T11:25:28;10.70;99.90
27567;DHT22;15006;48.584;9.186;2024-01-25T11:27:55;11.40;99.90
27567;DHT22;15006;48.584;9.186;2024-01-25T11:30:21;12.00;99.90
27567;DHT22;15006;48.584;9.186;2024-01-25T11:32:48;12.60;99.90
27567;DHT22;15006;48.584;9.186;2024-01-25T11:35:15;13.10;99.30
27567;DHT22;15006;48.584;9.186;2024-01-25T11:37:48;13.40;97.20
27567;DHT22;15006;48.584;9.186;2024-01-25T11:40:15;13.70;91.30
27567;DHT22;15006;48.584;9.186;2024-01-25T11:42:43;13.80;89.20
27567;DHT22;15006;48.584;9.186;2024-01-25T11:45:11;13.80;83.90
27567;DHT22;15006;48.584;9.186;2024-01-25T11:47:38;13.80;83.90
27567;DHT22;15006;48.584;9.186;2024-01-25T11:50:05;13.70;83.80
27567;DHT22;15006;48.584;9.186;2024-01-25T11:52:33;13.60;79.60
27567;DHT22;15006;48.584;9.186;2024-01-25T11:55:06;13.50;82.80
27567;DHT22;15006;48.584;9.186;2024-01-25T11:57:42;13.40;80.00
27567;DHT22;15006;48.584;9.186;2024-01-25T12:00:11;13.30;78.90
27567;DHT22;15006;48.584;9.186;2024-01-25T12:02:40;13.40;88.80
27567;DHT22;15006;48.584;9.186;2024-01-25T12:05:08;13.50;90.10
27567;DHT22;15006;48.584;9.186;2024-01-25T12:07:34;13.60;88.00
27567;DHT22;15006;48.584;9.186;2024-01-25T12:10:10;13.70;88.70
27567;DHT22;15006;48.584;9.186;2024-01-25T12:12:41;13.70;76.40
27567;DHT22;15006;48.584;9.186;2024-01-25T12:15:07;13.80;87.60
27567;DHT22;15006;48.584;9.186;2024-01-25T12:17:34;14.00;85.80
27567;DHT22;15006;48.584;9.186;2024-01-25T12:20:02;14.00;84.30
27567;DHT22;15006;48.584;9.186;2024-01-25T12:22:29;13.90;77.90
27567;DHT22;15006;48.584;9.186;2024-01-25T12:24:59;13.80;75.70
27567;DHT22;15006;48.584;9.186;2024-01-25T12:27:26;13.60;75.10
27567;DHT22;15006;48.584;9.186;2024-01-25T12:29:52;13.40;74.70
27567;DHT22;15006;48.584;9.186;2024-01-25T12:32:22;13.30;77.00
27567;DHT22;15006;48.584;9.186;2024-01-25T12:37:20;13.20;77.00
27567;DHT22;15006;48.584;9.186;2024-01-25T12:39:46;13.30;82.40
27567;DHT22;15006;48.584;9.186;2024-01-25T12:42:13;13.30;79.40
27567;DHT22;15006;48.584;9.186;2024-01-25T12:44:39;13.40;81.00
27567;DHT22;15006;48.584;9.186;2024-01-25T12:47:05;13.40;79.50
27567;DHT22;15006;48.584;9.186;2024-01-25T12:49:33;13.40;81.50
27567;DHT22;15006;48.584;9.186;2024-01-25T12:51:59;13.50;80.60
27567;DHT22;15006;48.584;9.186;2024-01-25T12:54:26;13.60;81.60
27567;DHT22;15006;48.584;9.186;2024-01-25T12:56:54;13.70;83.20
27567;DHT22;15006;48.584;9.186;2024-01-25T12:59:20;13.80;81.20
27567;DHT22;15006;48.584;9.186;2024-01-25T13:01:46;13.90;80.70
27567;DHT22;15006;48.584;9.186;2024-01-25T13:04:12;14.00;80.10
27567;DHT22;15006;48.584;9.186;2024-01-25T13:06:38;14.20;80.00
27567;DHT22;15006;48.584;9.186;2024-01-25T13:09:04;14.30;80.70
27567;DHT22;15006;48.584;9.186;2024-01-25T13:11:30;14.30;80.30
27567;DHT22;15006;48.584;9.186;2024-01-25T13:13:56;14.30;77.50
27567;DHT22;15006;48.584;9.186;2024-01-25T13:16:22;14.20;75.90
27567;DHT22;15006;48.584;9.186;2024-01-25T13:18:48;14.30;80.80
27567;DHT22;15006;48.584;9.186;2024-01-25T13:21:14;14.30;80.60
27567;DHT22;15006;48.584;9.186;2024-01-25T13:23:40;14.40;82.20
27567;DHT22;15006;48.584;9.186;2024-01-25T13:26:06;14.60;83.60
27567;DHT22;15006;48.584;9.186;2024-01-25T13:28:32;14.80;80.90
27567;DHT22;15006;48.584;9.186;2024-01-25T13:30:58;14.80;77.70
27567;DHT22;15006;48.584;9.186;2024-01-25T13:33:25;14.80;75.70
27567;DHT22;15006;48.584;9.186;2024-01-25T13:35:51;14.60;73.70
27567;DHT22;15006;48.584;9.186;2024-01-25T13:38:17;14.40;73.70
27567;DHT22;15006;48.584;9.186;2024-01-25T13:40:43;14.30;75.60
27567;DHT22;15006;48.584;9.186;2024-01-25T13:43:09;14.10;75.50
27567;DHT22;15006;48.584;9.186;2024-01-25T13:45:35;14.00;75.40
27567;DHT22;15006;48.584;9.186;2024-01-25T13:48:01;13.90;77.90
27567;DHT22;15006;48.584;9.186;2024-01-25T13:50:27;13.80;78.10
27567;DHT22;15006;48.584;9.186;2024-01-25T13:52:53;13.80;79.30
27567;DHT22;15006;48.584;9.186;2024-01-25T13:55:19;13.80;78.00
27567;DHT22;15006;48.584;9.186;2024-01-25T13:57:45;13.80;77.50
27567;DHT22;15006;48.584;9.186;2024-01-25T14:00:11;13.70;74.50
27567;DHT22;15006;48.584;9.186;2024-01-25T14:02:40;13.60;74.00
27567;DHT22;15006;48.584;9.186;2024-01-25T14:05:08;13.50;72.90
27567;DHT22;15006;48.584;9.186;2024-01-25T14:07:34;13.30;62.60
27567;DHT22;15006;48.584;9.186;2024-01-25T14:10:00;13.20;74.00
27567;DHT22;15006;48.584;9.186;2024-01-25T14:12:26;13.00;75.40
27567;DHT22;15006;48.584;9.186;2024-01-25T14:14:52;12.80;73.40
27567;DHT22;15006;48.584;9.186;2024-01-25T14:17:18;12.60;73.00
27567;DHT22;15006;48.584;9.186;2024-01-25T14:19:44;12.40;72.00
27567;DHT22;15006;48.584;9.186;2024-01-25T14:22:10;12.10;72.80
27567;DHT22;15006;48.584;9.186;2024-01-25T14:24:36;11.70;71.50
27567;DHT22;15006;48.584;9.186;2024-01-25T14:27:02;11.40;72.60
27567;DHT22;15006;48.584;9.186;2024-01-25T14:29:29;11.10;74.50
27567;DHT22;15006;48.584;9.186;2024-01-25T14:31:58;10.80;74.60
27567;DHT22;15006;48.584;9.186;2024-01-25T14:34:24;10.40;76.20
27567;DHT22;15006;48.584;9.186;2024-01-25T14:36:50;10.20;76.70
27567;DHT22;15006;48.584;9.186;2024-01-25T14:39:16;9.80;78.90
27567;DHT22;15006;48.584;9.186;2024-01-25T14:41:45;9.60;78.20
27567;DHT22;15006;48.584;9.186;2024-01-25T14:44:12;9.40;79.30
27567;DHT22;15006;48.584;9.186;2024-01-25T14:46:39;9.30;80.90
27567;DHT22;15006;48.584;9.186;2024-01-25T14:49:05;9.10;82.20
27567;DHT22;15006;48.584;9.186;2024-01-25T14:51:31;8.90;82.10
27567;DHT22;15006;48.584;9.186;2024-01-25T14:53:57;8.70;81.30
27567;DHT22;15006;48.584;9.186;2024-01-25T14:56:23;8.60;82.90
27567;DHT22;15006;48.584;9.186;2024-01-25T14:58:49;8.40;83.00
27567;DHT22;15006;48.584;9.186;2024-01-25T15:01:16;8.40;83.20
27567;DHT22;15006;48.584;9.186;2024-01-25T15:03:48;8.20;83.40
27567;DHT22;15006;48.584;9.186;2024-01-25T15:06:14;8.10;84.80
27567;DHT22;15006;48.584;9.186;2024-01-25T15:08:40;8.00;85.30
27567;DHT22;15006;48.584;9.186;2024-01-25T15:11:06;7.90;85.50
27567;DHT22;15006;48.584;9.186;2024-01-25T15:13:32;7.90;86.60
27567;DHT22;15006;48.584;9.186;2024-01-25T15:15:58;7.80;86.70
27567;DHT22;15006;48.584;9.186;2024-01-25T15:18:24;7.70;87.40
27567;DHT22;15006;48.584;9.186;2024-01-25T15:20:50;7.70;87.90
27567;DHT22;15006;48.584;9.186;2024-01-25T15:23:18;7.70;89.00
27567;DHT22;15006;48.584;9.186;2024-01-25T15:25:44;7.70;89.20
27567;DHT22;15006;48.584;9.186;2024-01-25T15:28:10;7.60;89.80
27567;DHT22;15006;48.584;9.186;2024-01-25T15:30:37;7.60;89.60
27567;DHT22;15006;48.584;9.186;2024-01-25T15:33:03;7.50;90.00
27567;DHT22;15006;48.584;9.186;2024-01-25T15:35:31;7.50;90.20
27567;DHT22;15006;48.584;9.186;2024-01-25T15:37:58;7.60;90.20
27567;DHT22;15006;48.584;9.186;2024-01-25T15:40:31;7.50;90.10